sensor_id;sensor_type;location;lat;lon;timestamp;temperature;humidity
11536;DHT22;5824;49.336;8.652;2023-04-25T00:00:30;10.30;1.00
11536;DHT22;5824;49.336;8.652;2023-04-25T00:02:55;10.30;1.00
11536;DHT22;5824;49.336;8.652;2023-04-25T00:05:22;10.20;1.00
11536;DHT22;5824;49.336;8.652;2023-04-25T00:07:49;10.20;1.00
11536;DHT22;5824;49.336;8.652;2023-04-25T00:10:15;10.20;1.00
11536;DHT22;5824;49.336;8.652;2023-04-25T00:12:41;10.10;1.00
11536;DHT22;5824;49.336;8.652;2023-04-25T00:15:07;10.00;1.00
11536;DHT22;5824;49.336;8.652;2023-04-25T00:17:33;9.90;1.00
11536;DHT22;5824;49.336;8.652;2023-04-25T00:20:00;9.90;1.00
11536;DHT22;5824;49.336;8.652;2023-04-25T00:22:25;10.10;1.00
11536;DHT22;5824;49.336;8.652;2023-04-25T00:24:51;10.40;1.00
11536;DHT22;5824;49.336;8.652;2023-04-25T00:27:18;10.20;1.00
11536;DHT22;5824;49.336;8.652;2023-04-25T00:29:44;10.10;1.00
11536;DHT22;5824;49.336;8.652;2023-04-25T00:32:09;10.10;1.00
11536;DHT22;5824;49.336;8.652;2023-04-25T00:34:35;10.00;1.00
11536;DHT22;5824;49.336;8.652;2023-04-25T00:37:01;10.00;1.00
11536;DHT22;5824;49.336;8.652;2023-04-25T00:39:27;9.90;1.00
11536;DHT22;5824;49.336;8.652;2023-04-25T00:41:54;9.80;1.00
11536;DHT22;5824;49.336;8.652;2023-04-25T00:44:20;9.80;1.00
11536;DHT22;5824;49.336;8.652;2023-04-25T00:46:47;9.70;1.00
11536;DHT22;5824;49.336;8.652;2023-04-25T00:49:12;9.50;1.00
11536;DHT22;5824;49.336;8.652;2023-04-25T00:51:40;9.60;1.00
11536;DHT22;5824;49.336;8.652;2023-04-25T00:54:06;9.60;1.00
11536;DHT22;5824;49.336;8.652;2023-04-25T00:56:32;9.60;1.00
11536;DHT22;5824;49.336;8.652;2023-04-25T00:58:57;9.50;1.00
11536;DHT22;5824;49.336;8.652;2023-04-25T01:01:23;9.50;1.00
11536;DHT22;5824;49.336;8.652;2023-04-25T01:03:49;9.30;1.00
11536;DHT22;5824;49.336;8.652;2023-04-25T01:06:16;9.30;1.00
11536;DHT22;5824;49.336;8.652;2023-04-25T01:08:41;9.30;1.00
11536;DHT22;5824;49.336;8.652;2023-04-25T01:11:07;9.30;1.00
11536;DHT22;5824;49.336;8.652;2023-04-25T01:13:33;9.20;1.00
11536;DHT22;5824;49.336;8.652;2023-04-25T01:15:59;9.20;1.00
11536;DHT22;5824;49.336;8.652;2023-04-25T01:18:26;9.20;1.00
11536;DHT22;5824;49.336;8.652;2023-04-25T01:20:52;9.20;1.00
11536;DHT22;5824;49.336;8.652;2023-04-25T01:23:19;9.20;1.00
11536;DHT22;5824;49.336;8.652;2023-04-25T01:25:45;9.20;1.00
11536;DHT22;5824;49.336;8.652;2023-04-25T01:28:12;9.20;1.00
11536;DHT22;5824;49.336;8.652;2023-04-25T01:30:38;9.20;1.00
11536;DHT22;5824;49.336;8.652;2023-04-25T01:33:04;9.20;1.00
11536;DHT22;5824;49.336;8.652;2023-04-25T01:35:31;9.20;1.00
11536;DHT22;5824;49.336;8.652;2023-04-25T01:37:57;9.20;1.00
11536;DHT22;5824;49.336;8.652;2023-04-25T01:40:24;9.20;1.00
11536;DHT22;5824;49.336;8.652;2023-04-25T01:42:50;9.20;1.00
11536;DHT22;5824;49.336;8.652;2023-04-25T01:45:16;9.20;1.00
11536;DHT22;5824;49.336;8.652;2023-04-25T01:47:42;9.20;1.00
11536;DHT22;5824;49.336;8.652;2023-04-25T01:50:09;9.30;1.00
11536;DHT22;5824;49.336;8.652;2023-04-25T01:52:36;9.30;1.00
11536;DHT22;5824;49.336;8.652;2023-04-25T01:55:02;9.30;1.00
11536;DHT22;5824;49.336;8.652;2023-04-25T01:57:28;9.20;1.00
11536;DHT22;5824;49.336;8.652;2023-04-25T01:59:59;9.20;1.00
11536;DHT22;5824;49.336;8.652;2023-04-25T02:02:25;9.20;1.00
11536;DHT22;5824;49.336;8.652;2023-04-25T02:04:51;9.20;1.00
11536;DHT22;5824;49.336;8.652;2023-04-25T02:07:17;9.20;1.00
11536;DHT22;5824;49.336;8.652;2023-04-25T02:09:42;9.20;1.00
11536;DHT22;5824;49.336;8.652;2023-04-25T02:12:09;9.20;1.00
11536;DHT22;5824;49.336;8.652;2023-04-25T02:14:35;9.10;1.00
11536;DHT22;5824;49.336;8.652;2023-04-25T02:17:01;9.10;1.00
11536;DHT22;5824;49.336;8.652;2023-04-25T02:19:26;9.10;1.00
11536;DHT22;5824;49.336;8.652;2023-04-25T02:21:52;9.10;1.00
11536;DHT22;5824;49.336;8.652;2023-04-25T02:24:17;9.00;1.00
11536;DHT22;5824;49.336;8.652;2023-04-25T02:26:43;9.00;1.30
11536;DHT22;5824;49.336;8.652;2023-04-25T02:29:09;9.00;2.00
11536;DHT22;5824;49.336;8.652;2023-04-25T02:31:35;9.00;4.00
11536;DHT22;5824;49.336;8.652;2023-04-25T02:34:01;8.90;3.70
11536;DHT22;5824;49.336;8.652;2023-04-25T02:36:26;9.00;7.00
11536;DHT22;5824;49.336;8.652;2023-04-25T02:38:53;9.00;7.30
11536;DHT22;5824;49.336;8.652;2023-04-25T02:41:18;9.00;9.20
11536;DHT22;5824;49.336;8.652;2023-04-25T02:43:43;9.10;12.50
11536;DHT22;5824;49.336;8.652;2023-04-25T02:46:09;9.10;12.30
11536;DHT22;5824;49.336;8.652;2023-04-25T02:48:35;9.00;17.00
11536;DHT22;5824;49.336;8.652;2023-04-25T02:51:00;9.10;20.20
11536;DHT22;5824;49.336;8.652;2023-04-25T02:53:26;9.10;17.90
11536;DHT22;5824;49.336;8.652;2023-04-25T02:55:51;9.10;19.80
11536;DHT22;5824;49.336;8.652;2023-04-25T02:58:18;9.10;23.10
11536;DHT22;5824;49.336;8.652;2023-04-25T03:00:43;9.10;21.30
11536;DHT22;5824;49.336;8.652;2023-04-25T03:03:09;9.10;23.10
11536;DHT22;5824;49.336;8.652;2023-04-25T03:05:34;9.10;22.90
11536;DHT22;5824;49.336;8.652;2023-04-25T03:08:00;9.10;22.60
11536;DHT22;5824;49.336;8.652;2023-04-25T03:10:26;9.10;23.50
11536;DHT22;5824;49.336;8.652;2023-04-25T03:12:51;9.10;24.80
11536;DHT22;5824;49.336;8.652;2023-04-25T03:15:18;9.00;24.70
11536;DHT22;5824;49.336;8.652;2023-04-25T03:17:43;9.00;24.60
11536;DHT22;5824;49.336;8.652;2023-04-25T03:20:10;8.90;23.80
11536;DHT22;5824;49.336;8.652;2023-04-25T03:22:36;8.90;27.50
11536;DHT22;5824;49.336;8.652;2023-04-25T03:25:02;8.90;32.20
11536;DHT22;5824;49.336;8.652;2023-04-25T03:27:28;8.90;38.00
11536;DHT22;5824;49.336;8.652;2023-04-25T03:29:53;8.90;31.50
11536;DHT22;5824;49.336;8.652;2023-04-25T03:32:19;8.90;38.00
11536;DHT22;5824;49.336;8.652;2023-04-25T03:34:44;8.90;35.80
11536;DHT22;5824;49.336;8.652;2023-04-25T03:37:10;8.90;38.00
11536;DHT22;5824;49.336;8.652;2023-04-25T03:39:35;8.90;38.10
11536;DHT22;5824;49.336;8.652;2023-04-25T03:42:01;8.90;37.90
11536;DHT22;5824;49.336;8.652;2023-04-25T03:44:28;9.00;35.90
11536;DHT22;5824;49.336;8.652;2023-04-25T03:46:53;9.00;38.20
11536;DHT22;5824;49.336;8.652;2023-04-25T03:49:19;9.00;38.00
11536;DHT22;5824;49.336;8.652;2023-04-25T03:51:44;9.00;38.10
11536;DHT22;5824;49.336;8.652;2023-04-25T03:54:10;9.00;35.90
11536;DHT22;5824;49.336;8.652;2023-04-25T03:56:36;9.00;38.10
11536;DHT22;5824;49.336;8.652;2023-04-25T03:59:01;9.00;38.00
11536;DHT22;5824;49.336;8.652;2023-04-25T04:01:27;9.00;38.20
11536;DHT22;5824;49.336;8.652;2023-04-25T04:03:52;9.00;35.90
11536;DHT22;5824;49.336;8.652;2023-04-25T04:06:18;9.10;38.20
11536;DHT22;5824;49.336;8.652;2023-04-25T04:08:46;9.10;38.10
11536;DHT22;5824;49.336;8.652;2023-04-25T04:11:11;9.00;38.00
11536;DHT22;5824;49.336;8.652;2023-04-25T04:13:37;8.90;30.60
11536;DHT22;5824;49.336;8.652;2023-04-25T04:16:02;8.90;37.80
11536;DHT22;5824;49.336;8.652;2023-04-25T04:18:29;8.80;37.70
11536;DHT22;5824;49.336;8.652;2023-04-25T04:20:55;8.80;37.80
11536;DHT22;5824;49.336;8.652;2023-04-25T04:23:23;8.80;35.70
11536;DHT22;5824;49.336;8.652;2023-04-25T04:25:48;8.80;38.00
11536;DHT22;5824;49.336;8.652;2023-04-25T04:28:14;8.90;38.00
11536;DHT22;5824;49.336;8.652;2023-04-25T04:30:41;8.90;37.90
11536;DHT22;5824;49.336;8.652;2023-04-25T04:33:08;8.90;38.10
11536;DHT22;5824;49.336;8.652;2023-04-25T04:35:33;8.90;38.00
11536;DHT22;5824;49.336;8.652;2023-04-25T04:37:59;9.20;38.60
11536;DHT22;5824;49.336;8.652;2023-04-25T04:40:24;8.90;38.00
11536;DHT22;5824;49.336;8.652;2023-04-25T04:42:51;8.90;37.90
11536;DHT22;5824;49.336;8.652;2023-04-25T04:45:18;8.80;38.10
11536;DHT22;5824;49.336;8.652;2023-04-25T04:47:44;8.90;38.00
11536;DHT22;5824;49.336;8.652;2023-04-25T04:50:10;8.90;38.20
11536;DHT22;5824;49.336;8.652;2023-04-25T04:52:37;8.90;38.00
11536;DHT22;5824;49.336;8.652;2023-04-25T04:55:03;8.90;35.80
11536;DHT22;5824;49.336;8.652;2023-04-25T04:57:29;8.90;38.10
11536;DHT22;5824;49.336;8.652;2023-04-25T04:59:55;8.90;38.10
11536;DHT22;5824;49.336;8.652;2023-04-25T05:02:20;8.90;40.60
11536;DHT22;5824;49.336;8.652;2023-04-25T05:04:46;9.00;35.90
11536;DHT22;5824;49.336;8.652;2023-04-25T05:07:12;9.00;38.20
11536;DHT22;5824;49.336;8.652;2023-04-25T05:09:37;9.00;38.20
11536;DHT22;5824;49.336;8.652;2023-04-25T05:12:03;9.10;38.30
11536;DHT22;5824;49.336;8.652;2023-04-25T05:14:29;9.20;38.50
11536;DHT22;5824;49.336;8.652;2023-04-25T05:16:54;9.20;42.90
11536;DHT22;5824;49.336;8.652;2023-04-25T05:19:20;9.40;39.10
11536;DHT22;5824;49.336;8.652;2023-04-25T05:21:45;9.40;38.40
11536;DHT22;5824;49.336;8.652;2023-04-25T05:24:11;9.40;36.20
11536;DHT22;5824;49.336;8.652;2023-04-25T05:26:37;9.40;38.60
11536;DHT22;5824;49.336;8.652;2023-04-25T05:29:03;9.40;41.00
11536;DHT22;5824;49.336;8.652;2023-04-25T05:31:28;9.50;38.50
11536;DHT22;5824;49.336;8.652;2023-04-25T05:33:54;9.70;36.40
11536;DHT22;5824;49.336;8.652;2023-04-25T05:36:20;9.70;38.60
11536;DHT22;5824;49.336;8.652;2023-04-25T05:38:45;9.80;39.00
11536;DHT22;5824;49.336;8.652;2023-04-25T05:41:11;9.90;38.70
11536;DHT22;5824;49.336;8.652;2023-04-25T05:43:36;10.20;36.00
11536;DHT22;5824;49.336;8.652;2023-04-25T05:46:02;10.20;38.20
11536;DHT22;5824;49.336;8.652;2023-04-25T05:48:28;10.30;38.10
11536;DHT22;5824;49.336;8.652;2023-04-25T05:50:53;10.20;24.00
11536;DHT22;5824;49.336;8.652;2023-04-25T05:53:20;10.10;25.00
11536;DHT22;5824;49.336;8.652;2023-04-25T05:55:46;9.90;23.30
11536;DHT22;5824;49.336;8.652;2023-04-25T05:58:12;9.90;29.10
11536;DHT22;5824;49.336;8.652;2023-04-25T06:00:37;9.70;25.60
11536;DHT22;5824;49.336;8.652;2023-04-25T06:03:03;9.60;38.50
11536;DHT22;5824;49.336;8.652;2023-04-25T06:05:29;9.60;34.60
11536;DHT22;5824;49.336;8.652;2023-04-25T06:07:54;9.70;38.50
11536;DHT22;5824;49.336;8.652;2023-04-25T06:10:20;9.70;38.40
11536;DHT22;5824;49.336;8.652;2023-04-25T06:12:46;9.70;36.70
11536;DHT22;5824;49.336;8.652;2023-04-25T06:15:11;9.60;25.10
11536;DHT22;5824;49.336;8.652;2023-04-25T06:17:37;9.60;38.40
11536;DHT22;5824;49.336;8.652;2023-04-25T06:20:03;9.60;38.50
11536;DHT22;5824;49.336;8.652;2023-04-25T06:22:29;9.70;38.40
11536;DHT22;5824;49.336;8.652;2023-04-25T06:27:23;9.60;36.30
11536;DHT22;5824;49.336;8.652;2023-04-25T06:37:19;9.80;36.50
11536;DHT22;5824;49.336;8.652;2023-04-25T06:44:50;9.90;36.60
11536;DHT22;5824;49.336;8.652;2023-04-25T06:47:15;9.80;32.90
11536;DHT22;5824;49.336;8.652;2023-04-25T06:52:16;9.80;38.90
11536;DHT22;5824;49.336;8.652;2023-04-25T06:54:43;9.90;38.70
11536;DHT22;5824;49.336;8.652;2023-04-25T06:57:08;9.90;38.70
11536;DHT22;5824;49.336;8.652;2023-04-25T06:59:34;10.10;38.00
11536;DHT22;5824;49.336;8.652;2023-04-25T07:02:00;10.10;37.90
11536;DHT22;5824;49.336;8.652;2023-04-25T07:04:25;10.20;35.90
11536;DHT22;5824;49.336;8.652;2023-04-25T07:09:30;10.30;29.70
11536;DHT22;5824;49.336;8.652;2023-04-25T07:11:55;10.30;38.00
11536;DHT22;5824;49.336;8.652;2023-04-25T07:14:22;10.30;23.30
11536;DHT22;5824;49.336;8.652;2023-04-25T07:16:47;10.30;38.00
11536;DHT22;5824;49.336;8.652;2023-04-25T07:19:13;10.40;31.90
11536;DHT22;5824;49.336;8.652;2023-04-25T07:21:38;10.50;38.20
11536;DHT22;5824;49.336;8.652;2023-04-25T07:24:04;10.40;38.10
11536;DHT22;5824;49.336;8.652;2023-04-25T07:26:30;10.30;38.20
11536;DHT22;5824;49.336;8.652;2023-04-25T07:28:55;10.10;27.60
11536;DHT22;5824;49.336;8.652;2023-04-25T07:31:21;10.00;32.30
11536;DHT22;5824;49.336;8.652;2023-04-25T07:33:47;9.90;28.60
11536;DHT22;5824;49.336;8.652;2023-04-25T07:36:13;9.70;20.00
11536;DHT22;5824;49.336;8.652;2023-04-25T07:38:40;9.70;28.40
11536;DHT22;5824;49.336;8.652;2023-04-25T07:41:06;9.80;28.30
11536;DHT22;5824;49.336;8.652;2023-04-25T07:43:32;9.90;25.00
11536;DHT22;5824;49.336;8.652;2023-04-25T07:45:57;10.00;19.70
11536;DHT22;5824;49.336;8.652;2023-04-25T07:48:23;10.00;22.80
11536;DHT22;5824;49.336;8.652;2023-04-25T07:50:48;10.00;17.70
11536;DHT22;5824;49.336;8.652;2023-04-25T07:53:14;10.00;18.10
11536;DHT22;5824;49.336;8.652;2023-04-25T07:55:40;9.90;12.80
11536;DHT22;5824;49.336;8.652;2023-04-25T07:58:09;9.90;8.40
11536;DHT22;5824;49.336;8.652;2023-04-25T08:00:35;9.90;11.50
11536;DHT22;5824;49.336;8.652;2023-04-25T08:03:01;9.90;9.20
11536;DHT22;5824;49.336;8.652;2023-04-25T08:05:26;9.40;14.30
11536;DHT22;5824;49.336;8.652;2023-04-25T08:07:52;9.90;7.90
11536;DHT22;5824;49.336;8.652;2023-04-25T08:10:17;9.90;5.80
11536;DHT22;5824;49.336;8.652;2023-04-25T08:12:43;10.10;14.20
11536;DHT22;5824;49.336;8.652;2023-04-25T08:15:09;10.20;12.50
11536;DHT22;5824;49.336;8.652;2023-04-25T08:17:34;10.30;1.00
11536;DHT22;5824;49.336;8.652;2023-04-25T08:20:00;10.20;4.70
11536;DHT22;5824;49.336;8.652;2023-04-25T08:22:25;10.20;7.50
11536;DHT22;5824;49.336;8.652;2023-04-25T08:24:51;10.30;1.20
11536;DHT22;5824;49.336;8.652;2023-04-25T08:27:18;10.30;1.00
11536;DHT22;5824;49.336;8.652;2023-04-25T08:29:43;10.50;1.80
11536;DHT22;5824;49.336;8.652;2023-04-25T08:32:09;10.60;1.00
11536;DHT22;5824;49.336;8.652;2023-04-25T08:34:34;10.80;1.00
11536;DHT22;5824;49.336;8.652;2023-04-25T08:37:02;10.90;1.00
11536;DHT22;5824;49.336;8.652;2023-04-25T08:39:29;11.00;1.00
11536;DHT22;5824;49.336;8.652;2023-04-25T08:41:55;11.30;1.00
11536;DHT22;5824;49.336;8.652;2023-04-25T08:44:22;11.80;1.00
11536;DHT22;5824;49.336;8.652;2023-04-25T08:46:49;12.60;1.00
11536;DHT22;5824;49.336;8.652;2023-04-25T08:49:16;13.40;1.00
11536;DHT22;5824;49.336;8.652;2023-04-25T08:51:45;14.00;1.00
11536;DHT22;5824;49.336;8.652;2023-04-25T08:54:13;14.40;1.00
11536;DHT22;5824;49.336;8.652;2023-04-25T08:56:40;14.90;1.00
11536;DHT22;5824;49.336;8.652;2023-04-25T08:59:06;15.10;1.00
11536;DHT22;5824;49.336;8.652;2023-04-25T09:01:34;15.30;1.00
11536;DHT22;5824;49.336;8.652;2023-04-25T09:04:01;15.60;1.00
11536;DHT22;5824;49.336;8.652;2023-04-25T09:06:30;15.70;1.00
11536;DHT22;5824;49.336;8.652;2023-04-25T09:09:07;15.60;1.00
11536;DHT22;5824;49.336;8.652;2023-04-25T09:11:34;15.30;1.00
11536;DHT22;5824;49.336;8.652;2023-04-25T09:14:14;15.20;1.00
11536;DHT22;5824;49.336;8.652;2023-04-25T09:19:22;14.90;1.00
11536;DHT22;5824;49.336;8.652;2023-04-25T09:21:53;15.00;1.00
11536;DHT22;5824;49.336;8.652;2023-04-25T09:24:39;15.30;1.00
11536;DHT22;5824;49.336;8.652;2023-04-25T09:27:10;16.60;1.00
11536;DHT22;5824;49.336;8.652;2023-04-25T09:29:38;16.60;1.00
11536;DHT22;5824;49.336;8.652;2023-04-25T09:32:22;17.70;1.00
11536;DHT22;5824;49.336;8.652;2023-04-25T09:34:54;18.70;1.00
11536;DHT22;5824;49.336;8.652;2023-04-25T09:37:25;19.30;1.00
11536;DHT22;5824;49.336;8.652;2023-04-25T09:39:54;19.90;1.00
11536;DHT22;5824;49.336;8.652;2023-04-25T09:42:24;20.60;1.00
11536;DHT22;5824;49.336;8.652;2023-04-25T09:44:52;20.90;1.00
11536;DHT22;5824;49.336;8.652;2023-04-25T09:47:19;20.90;1.00
11536;DHT22;5824;49.336;8.652;2023-04-25T09:49:47;21.50;1.00
11536;DHT22;5824;49.336;8.652;2023-04-25T09:52:20;19.50;1.00
11536;DHT22;5824;49.336;8.652;2023-04-25T09:54:47;18.60;1.00
11536;DHT22;5824;49.336;8.652;2023-04-25T09:57:15;17.90;1.00
11536;DHT22;5824;49.336;8.652;2023-04-25T09:59:46;17.90;1.00
11536;DHT22;5824;49.336;8.652;2023-04-25T10:02:18;18.50;1.00
11536;DHT22;5824;49.336;8.652;2023-04-25T10:04:48;19.10;1.00
11536;DHT22;5824;49.336;8.652;2023-04-25T10:07:14;19.20;1.00
11536;DHT22;5824;49.336;8.652;2023-04-25T10:09:40;19.30;1.00
11536;DHT22;5824;49.336;8.652;2023-04-25T10:12:07;19.10;1.00
11536;DHT22;5824;49.336;8.652;2023-04-25T10:14:33;18.70;1.00
11536;DHT22;5824;49.336;8.652;2023-04-25T10:17:00;19.30;1.00
11536;DHT22;5824;49.336;8.652;2023-04-25T10:19:27;19.40;1.00
11536;DHT22;5824;49.336;8.652;2023-04-25T10:22:08;19.50;1.00
11536;DHT22;5824;49.336;8.652;2023-04-25T10:24:38;19.30;1.00
11536;DHT22;5824;49.336;8.652;2023-04-25T10:27:04;18.30;1.00
11536;DHT22;5824;49.336;8.652;2023-04-25T10:29:30;18.20;1.00
11536;DHT22;5824;49.336;8.652;2023-04-25T10:31:56;17.80;1.00
11536;DHT22;5824;49.336;8.652;2023-04-25T10:34:40;17.20;1.00
11536;DHT22;5824;49.336;8.652;2023-04-25T10:37:09;17.00;1.00
11536;DHT22;5824;49.336;8.652;2023-04-25T10:39:35;18.10;1.00
11536;DHT22;5824;49.336;8.652;2023-04-25T10:42:02;16.80;1.00
11536;DHT22;5824;49.336;8.652;2023-04-25T10:44:29;16.50;1.00
11536;DHT22;5824;49.336;8.652;2023-04-25T10:46:56;16.80;1.00
11536;DHT22;5824;49.336;8.652;2023-04-25T10:52:25;16.80;1.00
11536;DHT22;5824;49.336;8.652;2023-04-25T10:54:52;16.40;1.00
11536;DHT22;5824;49.336;8.652;2023-04-25T10:57:41;16.00;1.00
11536;DHT22;5824;49.336;8.652;2023-04-25T11:00:11;16.30;1.00
11536;DHT22;5824;49.336;8.652;2023-04-25T11:02:41;16.80;1.00
11536;DHT22;5824;49.336;8.652;2023-04-25T11:05:09;17.10;1.00
11536;DHT22;5824;49.336;8.652;2023-04-25T11:07:47;17.40;1.00
11536;DHT22;5824;49.336;8.652;2023-04-25T11:10:14;17.40;1.00
11536;DHT22;5824;49.336;8.652;2023-04-25T11:12:39;17.50;1.00
11536;DHT22;5824;49.336;8.652;2023-04-25T11:15:06;17.20;1.00
11536;DHT22;5824;49.336;8.652;2023-04-25T11:17:33;16.70;1.00
11536;DHT22;5824;49.336;8.652;2023-04-25T11:19:59;16.40;1.00
11536;DHT22;5824;49.336;8.652;2023-04-25T11:22:24;16.10;1.00
11536;DHT22;5824;49.336;8.652;2023-04-25T11:24:51;16.00;1.00
11536;DHT22;5824;49.336;8.652;2023-04-25T11:27:17;16.10;1.00
11536;DHT22;5824;49.336;8.652;2023-04-25T11:29:42;16.10;1.00
11536;DHT22;5824;49.336;8.652;2023-04-25T11:32:08;15.70;1.00
11536;DHT22;5824;49.336;8.652;2023-04-25T11:34:34;15.60;1.00
11536;DHT22;5824;49.336;8.652;2023-04-25T11:37:01;15.90;1.00
11536;DHT22;5824;49.336;8.652;2023-04-25T11:39:27;15.90;1.00
11536;DHT22;5824;49.336;8.652;2023-04-25T11:41:54;15.70;1.00
11536;DHT22;5824;49.336;8.652;2023-04-25T11:44:20;15.40;1.00
11536;DHT22;5824;49.336;8.652;2023-04-25T11:46:46;15.30;1.00
11536;DHT22;5824;49.336;8.652;2023-04-25T11:49:15;15.20;1.00
11536;DHT22;5824;49.336;8.652;2023-04-25T11:51:45;15.00;1.00
11536;DHT22;5824;49.336;8.652;2023-04-25T11:54:12;14.90;1.00
11536;DHT22;5824;49.336;8.652;2023-04-25T11:56:41;15.20;1.00
11536;DHT22;5824;49.336;8.652;2023-04-25T11:59:07;15.60;1.00
11536;DHT22;5824;49.336;8.652;2023-04-25T12:01:34;16.20;1.00
11536;DHT22;5824;49.336;8.652;2023-04-25T12:06:40;18.90;1.00
11536;DHT22;5824;49.336;8.652;2023-04-25T12:09:11;18.70;1.00
11536;DHT22;5824;49.336;8.652;2023-04-25T12:11:46;18.40;1.00
11536;DHT22;5824;49.336;8.652;2023-04-25T12:14:12;18.70;1.00
11536;DHT22;5824;49.336;8.652;2023-04-25T12:16:46;18.60;1.00
11536;DHT22;5824;49.336;8.652;2023-04-25T12:19:16;17.90;1.00
11536;DHT22;5824;49.336;8.652;2023-04-25T12:21:42;17.40;1.00
11536;DHT22;5824;49.336;8.652;2023-04-25T12:24:21;17.00;1.00
11536;DHT22;5824;49.336;8.652;2023-04-25T12:26:51;16.60;1.00
11536;DHT22;5824;49.336;8.652;2023-04-25T12:29:22;16.20;1.00
11536;DHT22;5824;49.336;8.652;2023-04-25T12:31:49;16.40;1.00
11536;DHT22;5824;49.336;8.652;2023-04-25T12:34:15;16.50;1.00
11536;DHT22;5824;49.336;8.652;2023-04-25T12:36:41;16.20;1.00
11536;DHT22;5824;49.336;8.652;2023-04-25T12:39:06;16.10;1.00
11536;DHT22;5824;49.336;8.652;2023-04-25T12:41:33;15.80;1.00
11536;DHT22;5824;49.336;8.652;2023-04-25T12:43:58;15.70;1.00
11536;DHT22;5824;49.336;8.652;2023-04-25T12:46:24;15.90;1.00
11536;DHT22;5824;49.336;8.652;2023-04-25T12:48:50;16.50;1.00
11536;DHT22;5824;49.336;8.652;2023-04-25T12:51:15;17.20;1.00
11536;DHT22;5824;49.336;8.652;2023-04-25T12:53:41;17.30;1.00
11536;DHT22;5824;49.336;8.652;2023-04-25T12:56:07;17.10;1.00
11536;DHT22;5824;49.336;8.652;2023-04-25T12:58:33;17.20;1.00
11536;DHT22;5824;49.336;8.652;2023-04-25T13:03:25;17.80;1.00
11536;DHT22;5824;49.336;8.652;2023-04-25T13:05:51;18.50;1.00
11536;DHT22;5824;49.336;8.652;2023-04-25T13:08:18;18.80;1.00
11536;DHT22;5824;49.336;8.652;2023-04-25T13:10:43;20.00;1.00
11536;DHT22;5824;49.336;8.652;2023-04-25T13:13:09;22.40;1.00
11536;DHT22;5824;49.336;8.652;2023-04-25T13:15:35;22.70;1.00
11536;DHT22;5824;49.336;8.652;2023-04-25T13:18:00;22.00;1.00
11536;DHT22;5824;49.336;8.652;2023-04-25T13:20:26;20.40;1.00
11536;DHT22;5824;49.336;8.652;2023-04-25T13:22:51;19.40;1.00
11536;DHT22;5824;49.336;8.652;2023-04-25T13:25:17;18.70;1.00
11536;DHT22;5824;49.336;8.652;2023-04-25T13:27:42;18.00;1.00
11536;DHT22;5824;49.336;8.652;2023-04-25T13:30:09;17.90;1.00
11536;DHT22;5824;49.336;8.652;2023-04-25T13:32:36;17.70;1.00
11536;DHT22;5824;49.336;8.652;2023-04-25T13:35:08;17.70;1.00
11536;DHT22;5824;49.336;8.652;2023-04-25T13:37:35;18.00;1.00
11536;DHT22;5824;49.336;8.652;2023-04-25T13:40:01;18.10;1.00
11536;DHT22;5824;49.336;8.652;2023-04-25T13:42:29;18.80;1.00
11536;DHT22;5824;49.336;8.652;2023-04-25T13:44:55;19.40;1.00
11536;DHT22;5824;49.336;8.652;2023-04-25T13:47:21;20.10;1.00
11536;DHT22;5824;49.336;8.652;2023-04-25T13:49:47;20.50;1.00
11536;DHT22;5824;49.336;8.652;2023-04-25T13:52:13;20.80;1.00
11536;DHT22;5824;49.336;8.652;2023-04-25T13:54:38;21.20;1.00
11536;DHT22;5824;49.336;8.652;2023-04-25T13:57:04;23.70;1.00
11536;DHT22;5824;49.336;8.652;2023-04-25T13:59:30;23.70;1.00
11536;DHT22;5824;49.336;8.652;2023-04-25T14:01:56;23.10;1.00
11536;DHT22;5824;49.336;8.652;2023-04-25T14:04:21;21.70;1.00
11536;DHT22;5824;49.336;8.652;2023-04-25T14:06:47;20.60;1.00
11536;DHT22;5824;49.336;8.652;2023-04-25T14:09:13;19.70;1.00
11536;DHT22;5824;49.336;8.652;2023-04-25T14:11:39;19.00;1.00
11536;DHT22;5824;49.336;8.652;2023-04-25T14:14:04;18.50;1.00
11536;DHT22;5824;49.336;8.652;2023-04-25T14:16:30;18.10;1.00
11536;DHT22;5824;49.336;8.652;2023-04-25T14:18:58;17.80;1.00
11536;DHT22;5824;49.336;8.652;2023-04-25T14:21:23;17.60;1.00
11536;DHT22;5824;49.336;8.652;2023-04-25T14:23:49;17.60;1.00
11536;DHT22;5824;49.336;8.652;2023-04-25T14:26:15;17.70;1.00
11536;DHT22;5824;49.336;8.652;2023-04-25T14:28:40;17.90;1.00
11536;DHT22;5824;49.336;8.652;2023-04-25T14:31:06;18.00;1.00
11536;DHT22;5824;49.336;8.652;2023-04-25T14:33:32;18.70;1.00
11536;DHT22;5824;49.336;8.652;2023-04-25T14:35:57;18.70;1.00
11536;DHT22;5824;49.336;8.652;2023-04-25T14:38:23;18.60;1.00
11536;DHT22;5824;49.336;8.652;2023-04-25T14:40:51;18.70;1.00
11536;DHT22;5824;49.336;8.652;2023-04-25T14:43:16;18.10;1.00
11536;DHT22;5824;49.336;8.652;2023-04-25T14:45:42;17.50;1.00
11536;DHT22;5824;49.336;8.652;2023-04-25T14:48:07;17.00;1.00
11536;DHT22;5824;49.336;8.652;2023-04-25T14:50:33;16.60;1.00
11536;DHT22;5824;49.336;8.652;2023-04-25T14:52:59;16.30;1.00
11536;DHT22;5824;49.336;8.652;2023-04-25T14:55:26;16.30;1.00
11536;DHT22;5824;49.336;8.652;2023-04-25T14:57:53;16.20;1.00
11536;DHT22;5824;49.336;8.652;2023-04-25T15:00:19;16.40;1.00
11536;DHT22;5824;49.336;8.652;2023-04-25T15:02:46;16.60;1.00
11536;DHT22;5824;49.336;8.652;2023-04-25T15:05:12;16.70;1.00
11536;DHT22;5824;49.336;8.652;2023-04-25T15:07:39;16.80;1.00
11536;DHT22;5824;49.336;8.652;2023-04-25T15:10:06;16.80;1.00
11536;DHT22;5824;49.336;8.652;2023-04-25T15:12:36;16.60;1.00
11536;DHT22;5824;49.336;8.652;2023-04-25T15:15:03;16.30;1.00
11536;DHT22;5824;49.336;8.652;2023-04-25T15:17:28;16.20;1.00
11536;DHT22;5824;49.336;8.652;2023-04-25T15:19:56;16.10;1.00
11536;DHT22;5824;49.336;8.652;2023-04-25T15:22:22;16.40;1.00
11536;DHT22;5824;49.336;8.652;2023-04-25T15:24:47;16.20;1.00
11536;DHT22;5824;49.336;8.652;2023-04-25T15:27:13;15.90;1.00
11536;DHT22;5824;49.336;8.652;2023-04-25T15:29:38;15.80;1.00
11536;DHT22;5824;49.336;8.652;2023-04-25T15:32:04;15.70;1.00
11536;DHT22;5824;49.336;8.652;2023-04-25T15:34:30;15.70;1.00
11536;DHT22;5824;49.336;8.652;2023-04-25T15:36:55;15.60;1.00
11536;DHT22;5824;49.336;8.652;2023-04-25T15:39:21;15.50;1.00
11536;DHT22;5824;49.336;8.652;2023-04-25T15:41:47;15.60;1.00
11536;DHT22;5824;49.336;8.652;2023-04-25T15:44:13;15.90;1.00
11536;DHT22;5824;49.336;8.652;2023-04-25T15:46:38;16.00;1.00
11536;DHT22;5824;49.336;8.652;2023-04-25T15:49:04;16.00;1.00
11536;DHT22;5824;49.336;8.652;2023-04-25T15:51:29;16.00;1.00
11536;DHT22;5824;49.336;8.652;2023-04-25T15:53:56;16.10;1.00
11536;DHT22;5824;49.336;8.652;2023-04-25T15:56:21;16.30;1.00
11536;DHT22;5824;49.336;8.652;2023-04-25T15:58:48;16.30;1.00
11536;DHT22;5824;49.336;8.652;2023-04-25T16:01:14;16.20;1.00
11536;DHT22;5824;49.336;8.652;2023-04-25T16:03:39;15.80;1.00
11536;DHT22;5824;49.336;8.652;2023-04-25T16:06:05;15.50;1.00
11536;DHT22;5824;49.336;8.652;2023-04-25T16:08:31;15.10;1.00
11536;DHT22;5824;49.336;8.652;2023-04-25T16:11:00;15.00;1.00
11536;DHT22;5824;49.336;8.652;2023-04-25T16:13:26;14.80;1.00
11536;DHT22;5824;49.336;8.652;2023-04-25T16:15:51;14.60;1.00
11536;DHT22;5824;49.336;8.652;2023-04-25T16:18:17;14.30;1.00
11536;DHT22;5824;49.336;8.652;2023-04-25T16:20:43;14.20;1.00
11536;DHT22;5824;49.336;8.652;2023-04-25T16:23:09;14.10;1.00
11536;DHT22;5824;49.336;8.652;2023-04-25T16:25:34;14.00;1.00
11536;DHT22;5824;49.336;8.652;2023-04-25T16:28:00;14.00;1.00